Time;durP1;ratioP1;P1;durP2;ratioP2;P2;SDS_P1;SDS_P2;PMS_P1;PMS_P2;Temp;Humidity;BMP_temperature;BMP_pressure;BME280_temperature;BME280_humidity;BME280_pressure;Samples;Min_cycle;Max_cycle;Signal;HPM_P1;HPM_P2
2021/05/15 00:00:11;;;;;;;15.60;10.45;;;17.40;82.10;;;;;;5053954;28;20036;-84
2021/05/15 00:02:37;;;;;;;13.70;8.95;;;17.40;82.00;;;;;;5053246;28;20155;-83
2021/05/15 00:05:08;;;;;;;12.85;9.60;;;17.40;81.80;;;;;;5039854;28;20013;-81
2021/05/15 00:07:34;;;;;;;20.50;10.45;;;17.40;81.50;;;;;;5054154;28;20021;-81
2021/05/15 00:10:00;;;;;;;16.90;9.90;;;17.40;82.10;;;;;;5035506;28;20110;-81
2021/05/15 00:12:26;;;;;;;14.23;9.75;;;17.40;82.40;;;;;;5053842;28;20486;-81
2021/05/15 00:14:52;;;;;;;14.90;9.45;;;17.30;82.40;;;;;;5042126;28;20106;-81
2021/05/15 00:17:19;;;;;;;14.40;9.80;;;17.30;82.40;;;;;;5053346;28;20123;-81
2021/05/15 00:19:44;;;;;;;13.82;10.35;;;17.20;82.40;;;;;;5053343;28;20021;-81
2021/05/15 00:22:11;;;;;;;17.60;9.15;;;17.10;82.70;;;;;;5052087;28;20347;-81
2021/05/15 00:24:37;;;;;;;13.35;9.45;;;17.10;83.00;;;;;;5053324;28;20021;-81
2021/05/15 00:27:03;;;;;;;14.70;10.73;;;17.00;83.00;;;;;;5023298;28;20498;-82
2021/05/15 00:29:29;;;;;;;11.35;9.77;;;17.00;83.10;;;;;;5056512;28;20466;-81
2021/05/15 00:31:55;;;;;;;14.93;9.77;;;17.00;83.40;;;;;;5054883;28;20028;-81
2021/05/15 00:34:21;;;;;;;12.50;8.98;;;16.90;83.40;;;;;;5054245;28;20016;-81
2021/05/15 00:36:48;;;;;;;23.02;10.45;;;16.90;83.60;;;;;;5052984;28;20025;-81
2021/05/15 00:39:15;;;;;;;16.45;9.38;;;16.90;83.70;;;;;;5052823;28;20017;-82
2021/05/15 00:41:41;;;;;;;11.00;8.93;;;16.90;83.80;;;;;;5052853;28;20043;-81
2021/05/15 00:46:51;;;;;;;20.15;10.20;;;16.90;84.40;;;;;;5052771;28;20028;-80
2021/05/15 00:49:17;;;;;;;14.85;10.40;;;16.80;84.60;;;;;;5052778;28;20024;-82
2021/05/15 00:51:43;;;;;;;15.25;11.20;;;16.80;84.70;;;;;;5052926;28;20028;-81
2021/05/15 00:54:12;;;;;;;17.52;12.27;;;16.80;84.90;;;;;;5052637;28;20025;-82
2021/05/15 00:56:38;;;;;;;19.73;11.48;;;16.80;85.00;;;;;;5052891;28;20031;-82
2021/05/15 00:59:05;;;;;;;12.55;11.23;;;16.70;85.10;;;;;;5030547;28;20018;-82
2021/05/15 01:01:31;;;;;;;16.83;11.38;;;16.70;85.30;;;;;;5053150;28;20036;-83
2021/05/15 01:03:57;;;;;;;21.83;12.32;;;16.70;85.60;;;;;;5046040;28;20037;-83
2021/05/15 01:06:23;;;;;;;24.95;12.18;;;16.60;85.70;;;;;;5048523;28;20513;-81
2021/05/15 01:08:49;;;;;;;17.52;10.98;;;16.70;85.80;;;;;;5054455;28;20446;-83
2021/05/15 01:11:19;;;;;;;19.00;12.60;;;16.60;86.00;;;;;;5053076;28;20029;-83
2021/05/15 01:13:53;;;;;;;15.20;11.90;;;16.60;86.00;;;;;;5052554;28;20020;-82
2021/05/15 01:16:19;;;;;;;17.70;12.10;;;16.60;86.10;;;;;;5052677;28;20033;-82
2021/05/15 01:18:45;;;;;;;17.57;11.30;;;16.60;86.20;;;;;;5046131;28;20026;-83
2021/05/15 01:21:12;;;;;;;13.95;11.20;;;16.60;86.30;;;;;;5035106;28;20022;-83
2021/05/15 01:23:38;;;;;;;18.35;11.52;;;16.60;86.50;;;;;;5038582;28;20021;-83
2021/05/15 01:26:24;;;;;;;17.88;12.23;;;16.60;86.50;;;;;;5049055;28;20037;-82
2021/05/15 01:28:53;;;;;;;22.30;13.23;;;16.60;86.30;;;;;;5046210;28;20108;-83
2021/05/15 01:31:19;;;;;;;17.60;11.93;;;16.60;86.50;;;;;;5052457;28;20025;-82
2021/05/15 01:33:46;;;;;;;23.02;12.63;;;16.70;86.60;;;;;;5051925;28;20025;-83
2021/05/15 01:36:12;;;;;;;14.75;11.52;;;16.60;87.00;;;;;;5038245;28;20021;-83
2021/05/15 01:38:38;;;;;;;13.15;11.57;;;16.60;87.20;;;;;;5052659;28;20104;-82
2021/05/15 01:41:06;;;;;;;19.27;11.20;;;16.60;87.40;;;;;;5052366;28;20032;-83
2021/05/15 01:43:32;;;;;;;18.42;12.18;;;16.60;87.40;;;;;;5052433;28;20028;-82
2021/05/15 01:45:58;;;;;;;16.73;11.85;;;16.60;87.40;;;;;;5052508;28;20486;-81
2021/05/15 01:48:24;;;;;;;16.15;10.88;;;16.60;87.30;;;;;;5053189;28;20032;-82
2021/05/15 01:51:14;;;;;;;15.95;11.80;;;16.60;87.50;;;;;;5058356;28;20021;-82
2021/05/15 01:53:48;;;;;;;16.55;12.18;;;16.70;87.10;;;;;;5061286;28;20072;-82
2021/05/15 01:56:17;;;;;;;19.05;12.18;;;16.80;87.50;;;;;;5049731;28;20037;-82
2021/05/15 01:58:43;;;;;;;14.95;12.45;;;16.70;87.20;;;;;;5023760;28;20025;-83
2021/05/15 02:01:10;;;;;;;16.38;11.68;;;16.80;87.40;;;;;;5052553;28;20025;-83
2021/05/15 02:03:38;;;;;;;13.77;10.95;;;16.80;87.20;;;;;;5034209;28;20013;-82
2021/05/15 02:06:04;;;;;;;19.40;12.57;;;16.80;87.30;;;;;;5052246;28;20021;-82
2021/05/15 02:08:30;;;;;;;24.42;12.63;;;16.80;87.40;;;;;;5052435;28;20097;-80
2021/05/15 02:10:56;;;;;;;16.65;12.23;;;16.70;87.70;;;;;;5053817;28;20037;-81
2021/05/15 02:13:26;;;;;;;14.60;11.40;;;16.70;88.70;;;;;;5031399;28;20038;-84
2021/05/15 02:15:52;;;;;;;20.48;13.65;;;16.70;89.00;;;;;;5046075;28;20486;-85
2021/05/15 02:18:18;;;;;;;21.02;13.23;;;16.60;88.60;;;;;;5046247;28;20033;-85
2021/05/15 02:20:44;;;;;;;18.05;12.85;;;16.70;88.80;;;;;;5052367;28;20139;-84
2021/05/15 02:23:13;;;;;;;17.67;12.93;;;16.80;88.40;;;;;;5041207;28;20036;-82
2021/05/15 02:25:40;;;;;;;17.92;13.57;;;16.90;87.90;;;;;;5049756;28;20036;-84
2021/05/15 02:28:06;;;;;;;19.65;12.80;;;16.90;87.40;;;;;;5056521;28;20455;-82
2021/05/15 02:30:34;;;;;;;20.55;13.07;;;16.90;87.00;;;;;;5055145;28;20055;-84
2021/05/15 02:33:00;;;;;;;18.23;11.85;;;16.90;87.30;;;;;;5053096;28;20037;-82
2021/05/15 02:35:26;;;;;;;19.27;12.87;;;16.90;87.10;;;;;;5052644;28;20361;-83
2021/05/15 02:37:53;;;;;;;16.92;12.70;;;16.90;87.00;;;;;;5051318;28;20056;-83
2021/05/15 02:40:20;;;;;;;18.08;13.43;;;16.90;86.90;;;;;;5051934;28;20025;-84
2021/05/15 02:42:49;;;;;;;21.98;13.23;;;16.90;87.60;;;;;;5025295;28;20036;-84
2021/05/15 02:45:17;;;;;;;23.75;13.70;;;16.90;86.90;;;;;;5053552;28;20480;-83
2021/05/15 02:47:43;;;;;;;21.05;14.73;;;16.90;87.30;;;;;;5055422;28;20037;-82
2021/05/15 02:50:11;;;;;;;20.77;13.38;;;17.00;87.50;;;;;;5055571;28;20025;-81
2021/05/15 02:52:37;;;;;;;;;;;17.10;87.30;;;;;;5058560;28;20108;-82
2021/05/15 02:55:08;;;;;;;17.40;12.82;;;17.10;86.60;;;;;;5060192;28;20645;-81
2021/05/15 02:57:34;;;;;;;18.83;13.40;;;17.00;87.00;;;;;;5057427;28;20360;-84
2021/05/15 03:00:00;;;;;;;19.13;13.90;;;17.00;87.00;;;;;;5055704;28;20119;-83
2021/05/15 03:02:26;;;;;;;19.45;13.68;;;17.00;87.50;;;;;;5026064;28;20368;-82
2021/05/15 03:04:52;;;;;;;18.73;14.93;;;16.90;87.50;;;;;;5053346;28;20044;-82
2021/05/15 03:07:18;;;;;;;17.92;14.50;;;16.80;87.70;;;;;;5055221;28;20091;-82
2021/05/15 03:09:45;;;;;;;20.38;14.93;;;16.90;88.10;;;;;;5054722;28;20043;-83
2021/05/15 03:12:11;;;;;;;19.55;14.57;;;16.80;87.70;;;;;;5054782;28;20032;-83
2021/05/15 03:14:38;;;;;;;15.63;14.02;;;16.80;87.50;;;;;;5055108;28;20109;-82
2021/05/15 03:17:04;;;;;;;19.02;14.98;;;16.90;87.50;;;;;;5054941;28;20032;-83
2021/05/15 03:19:30;;;;;;;15.98;14.00;;;16.90;87.20;;;;;;5055053;28;20017;-82
2021/05/15 03:21:56;;;;;;;15.70;14.00;;;16.90;87.00;;;;;;5055073;28;20021;-83
2021/05/15 03:24:22;;;;;;;20.33;15.68;;;17.00;86.70;;;;;;5054625;28;20017;-82
2021/05/15 03:26:48;;;;;;;18.13;14.45;;;17.10;86.50;;;;;;5025016;28;20053;-82
2021/05/15 03:29:15;;;;;;;21.35;15.20;;;17.20;86.70;;;;;;5049800;28;20026;-83
2021/05/15 03:31:41;;;;;;;23.30;14.23;;;17.20;86.70;;;;;;5045927;28;20036;-82
2021/05/15 03:34:08;;;;;;;21.98;14.75;;;17.20;86.10;;;;;;5054507;28;20025;-81
2021/05/15 03:36:34;;;;;;;21.73;15.45;;;17.20;85.80;;;;;;5037100;28;20021;-82
2021/05/15 03:39:03;;;;;;;22.00;14.75;;;17.20;85.90;;;;;;5054541;28;20029;-83
2021/05/15 03:41:29;;;;;;;18.30;15.15;;;17.10;86.10;;;;;;5054813;28;20040;-81
2021/05/15 03:43:55;;;;;;;21.83;15.40;;;17.00;86.30;;;;;;5037170;28;20025;-84
2021/05/15 03:46:21;;;;;;;20.10;15.75;;;17.00;86.60;;;;;;5055864;28;20021;-83
2021/05/15 03:48:47;;;;;;;18.65;15.18;;;16.80;86.70;;;;;;5055400;28;20047;-83
2021/05/15 03:51:13;;;;;;;18.67;14.90;;;16.80;87.10;;;;;;5055365;28;20029;-85
2021/05/15 03:53:38;;;;;;;21.90;15.18;;;16.80;87.40;;;;;;5046519;28;20025;-84
2021/05/15 03:56:04;;;;;;;19.58;15.25;;;16.90;87.30;;;;;;5050015;28;20029;-83
2021/05/15 03:58:30;;;;;;;28.83;19.33;;;17.10;87.00;;;;;;5051437;28;20028;-84
2021/05/15 04:00:56;;;;;;;20.13;15.38;;;17.30;86.50;;;;;;5055969;28;20028;-83
2021/05/15 04:03:22;;;;;;;17.50;15.30;;;17.40;85.60;;;;;;5074170;28;20096;-85
2021/05/15 04:05:48;;;;;;;17.48;15.13;;;17.50;84.90;;;;;;5073145;28;20040;-84
2021/05/15 04:08:14;;;;;;;18.25;15.35;;;17.40;85.00;;;;;;5059617;28;20021;-85
2021/05/15 04:10:39;;;;;;;19.10;16.13;;;17.30;85.20;;;;;;5061221;28;20021;-84
2021/05/15 04:13:21;;;;;;;19.67;16.10;;;17.20;85.50;;;;;;5068536;28;20025;-82
2021/05/15 04:15:56;;;;;;;20.60;15.95;;;17.20;85.70;;;;;;5054747;28;20049;-83
2021/05/15 04:18:21;;;;;;;19.60;17.20;;;17.20;86.10;;;;;;5054721;28;20464;-83
2021/05/15 04:20:48;;;;;;;22.55;17.10;;;17.20;86.00;;;;;;5057009;28;20255;-82
2021/05/15 04:23:14;;;;;;;22.83;17.08;;;17.30;86.10;;;;;;5057966;28;20051;-83
2021/05/15 04:25:40;;;;;;;21.20;17.75;;;17.50;86.00;;;;;;5057272;28;20025;-83
2021/05/15 04:28:08;;;;;;;18.48;16.27;;;17.60;85.70;;;;;;5046959;28;20535;-83
2021/05/15 04:30:34;;;;;;;17.45;15.55;;;17.80;85.40;;;;;;5039363;28;20021;-81
2021/05/15 04:33:01;;;;;;;22.52;15.55;;;18.20;84.60;;;;;;5039767;28;20037;-84
2021/05/15 04:35:27;;;;;;;24.15;15.68;;;18.40;82.60;;;;;;5054082;28;20020;-83
2021/05/15 04:37:53;;;;;;;19.52;14.15;;;18.50;81.50;;;;;;5054189;28;20039;-86
2021/05/15 04:40:19;;;;;;;27.25;16.30;;;18.50;80.90;;;;;;5054340;28;20021;-83
2021/05/15 04:42:45;;;;;;;18.63;13.93;;;18.50;81.00;;;;;;5035473;28;20025;-83
2021/05/15 04:45:13;;;;;;;23.90;14.85;;;18.60;81.00;;;;;;5053933;28;20021;-83
2021/05/15 04:47:39;;;;;;;18.83;13.85;;;18.70;80.90;;;;;;5054955;28;20021;-86
2021/05/15 04:50:08;;;;;;;14.75;13.02;;;18.70;80.90;;;;;;5056772;28;20029;-85
2021/05/15 04:52:34;;;;;;;28.20;13.15;;;18.80;80.30;;;;;;5040866;28;20025;-83
2021/05/15 04:54:59;;;;;;;18.70;13.88;;;18.90;80.10;;;;;;5054625;28;20043;-83
2021/05/15 04:57:25;;;;;;;22.40;14.93;;;19.10;79.70;;;;;;5055173;28;20101;-85
2021/05/15 04:59:51;;;;;;;19.95;13.60;;;19.60;79.00;;;;;;5037519;28;20390;-86
2021/05/15 05:02:17;;;;;;;21.23;13.95;;;20.30;77.00;;;;;;5053378;28;20066;-85
2021/05/15 05:04:43;;;;;;;19.00;13.10;;;20.90;74.40;;;;;;5054214;28;20402;-85
2021/05/15 05:07:09;;;;;;;22.88;13.85;;;21.40;72.30;;;;;;5054519;28;20025;-84
2021/05/15 05:09:35;;;;;;;21.40;13.45;;;21.70;70.40;;;;;;5026277;28;20386;-85
2021/05/15 05:12:00;;;;;;;17.40;12.18;;;22.20;69.10;;;;;;5054253;28;20032;-83
2021/05/15 05:14:27;;;;;;;16.48;12.07;;;23.00;67.50;;;;;;5053602;28;20104;-82
2021/05/15 05:16:56;;;;;;;19.63;12.48;;;24.00;65.10;;;;;;5053547;28;20059;-83
2021/05/15 05:19:22;;;;;;;16.30;12.15;;;24.60;62.20;;;;;;5053695;28;20021;-85
2021/05/15 05:21:49;;;;;;;19.05;14.43;;;25.40;60.20;;;;;;5053962;28;20025;-85
2021/05/15 05:24:15;;;;;;;15.60;13.27;;;25.80;58.00;;;;;;5036437;28;20096;-85
2021/05/15 05:26:41;;;;;;;17.42;13.90;;;26.20;57.00;;;;;;5044226;28;20458;-85
2021/05/15 05:29:08;;;;;;;22.48;14.48;;;26.70;55.50;;;;;;5051198;28;20021;-83
2021/05/15 05:31:41;;;;;;;19.33;14.57;;;27.30;54.60;;;;;;5035064;28;20391;-83
2021/05/15 05:34:08;;;;;;;24.15;13.55;;;27.50;53.00;;;;;;5036742;28;20047;-85
2021/05/15 05:36:36;;;;;;;18.92;13.85;;;27.80;52.30;;;;;;5054883;28;20013;-86
2021/05/15 05:39:10;;;;;;;23.40;14.02;;;28.20;51.50;;;;;;5053974;28;20021;-87
2021/05/15 05:41:37;;;;;;;17.52;13.70;;;28.70;50.80;;;;;;5036368;28;20087;-86
2021/05/15 05:44:07;;;;;;;16.65;11.95;;;29.40;49.00;;;;;;5035973;28;20063;-87
2021/05/15 05:46:33;;;;;;;17.50;12.60;;;29.70;47.70;;;;;;5053528;28;20021;-85
2021/05/15 05:49:02;;;;;;;18.67;11.52;;;30.00;47.40;;;;;;5053659;28;20373;-84
2021/05/15 05:51:28;;;;;;;17.63;12.10;;;30.40;46.60;;;;;;5053776;28;20114;-87
2021/05/15 05:54:00;;;;;;;20.85;11.52;;;31.20;45.30;;;;;;5041214;28;20109;-86
2021/05/15 05:56:26;;;;;;;17.17;10.77;;;32.10;44.50;;;;;;5054817;28;20475;-86
2021/05/15 05:58:55;;;;;;;20.00;11.43;;;33.00;42.40;;;;;;5053957;28;20429;-84
2021/05/15 06:01:22;;;;;;;21.42;10.02;;;34.00;40.90;;;;;;5052672;28;20021;-87
2021/05/15 06:03:48;;;;;;;12.65;9.07;;;34.90;39.30;;;;;;5053009;28;20179;-85
2021/05/15 06:06:14;;;;;;;9.85;8.82;;;35.20;38.40;;;;;;5052957;28;20024;-85
2021/05/15 06:08:40;;;;;;;17.07;9.23;;;34.70;38.30;;;;;;5029362;28;20013;-85
2021/05/15 06:11:06;;;;;;;14.10;9.80;;;33.70;39.20;;;;;;5046564;28;20101;-84
2021/05/15 06:13:33;;;;;;;14.98;10.32;;;32.60;40.50;;;;;;5068071;28;20013;-84
2021/05/15 06:15:59;;;;;;;11.57;9.05;;;31.80;42.30;;;;;;5072092;28;20021;-82
2021/05/15 06:18:25;;;;;;;18.20;9.93;;;31.60;43.20;;;;;;5068810;28;20079;-83
2021/05/15 06:20:51;;;;;;;19.20;8.50;;;32.10;42.60;;;;;;5064011;28;20025;-85
2021/05/15 06:23:16;;;;;;;13.17;8.33;;;32.70;41.20;;;;;;5060336;28;20086;-84
2021/05/15 06:25:43;;;;;;;10.00;8.50;;;33.10;40.90;;;;;;5057730;28;20045;-83
2021/05/15 06:28:11;;;;;;;13.77;8.77;;;33.70;40.00;;;;;;5057686;28;20032;-83
2021/05/15 06:30:37;;;;;;;16.60;9.10;;;33.80;39.20;;;;;;5057810;28;20029;-82
2021/05/15 06:33:03;;;;;;;12.37;9.47;;;34.00;39.20;;;;;;5061316;28;20082;-83
2021/05/15 06:35:28;;;;;;;21.23;11.13;;;34.20;39.10;;;;;;5057130;28;20336;-84
2021/05/15 06:37:54;;;;;;;13.73;9.23;;;33.70;39.40;;;;;;5056198;28;20501;-84
2021/05/15 06:40:22;;;;;;;13.37;9.03;;;33.20;40.10;;;;;;5056026;28;20028;-84
2021/05/15 06:42:48;;;;;;;15.65;8.73;;;33.10;40.20;;;;;;5046647;28;20104;-83
2021/05/15 06:45:13;;;;;;;12.97;9.60;;;33.50;40.10;;;;;;5055756;28;20069;-84
2021/05/15 06:47:39;;;;;;;16.03;9.30;;;34.10;39.40;;;;;;5037670;28;20057;-85
2021/05/15 06:50:08;;;;;;;17.57;8.90;;;34.60;38.80;;;;;;5038226;28;20029;-83
2021/05/15 06:52:35;;;;;;;17.55;11.40;;;34.70;38.20;;;;;;5042948;28;20057;-85
2021/05/15 06:55:01;;;;;;;15.98;10.93;;;34.90;38.10;;;;;;5056954;28;20021;-83
2021/05/15 06:57:26;;;;;;;13.40;8.57;;;35.80;37.20;;;;;;5056383;28;20781;-84
2021/05/15 06:59:52;;;;;;;15.80;9.80;;;36.40;36.50;;;;;;5057652;28;20028;-83
2021/05/15 07:02:18;;;;;;;15.52;9.68;;;37.10;36.00;;;;;;5059894;28;20096;-83
2021/05/15 07:04:44;;;;;;;12.75;8.57;;;37.60;34.70;;;;;;5059613;28;20024;-85
2021/05/15 07:07:10;;;;;;;18.00;8.45;;;36.90;35.10;;;;;;5057689;28;20024;-83
2021/05/15 07:09:36;;;;;;;13.18;8.90;;;37.40;35.30;;;;;;5056917;28;20029;-84
2021/05/15 07:12:02;;;;;;;18.80;9.35;;;37.20;34.60;;;;;;5058388;28;20025;-87
2021/05/15 07:14:28;;;;;;;14.70;8.25;;;36.80;35.10;;;;;;5057443;28;20065;-86
2021/05/15 07:16:54;;;;;;;;;;;36.70;35.20;;;;;;5057563;28;20473;-84
2021/05/15 07:19:20;;;;;;;12.90;8.75;;;36.40;36.40;;;;;;5056060;28;19905;-84
2021/05/15 07:21:46;;;;;;;19.15;9.65;;;37.00;35.30;;;;;;5056545;28;20069;-85
2021/05/15 07:24:11;;;;;;;11.60;8.02;;;37.80;34.90;;;;;;5056639;28;20053;-85
2021/05/15 07:26:37;;;;;;;13.90;8.32;;;38.80;33.80;;;;;;5026987;28;20073;-86
2021/05/15 07:29:03;;;;;;;19.27;7.05;;;38.80;33.50;;;;;;5052877;28;20103;-84
2021/05/15 07:31:29;;;;;;;11.93;6.65;;;39.60;33.00;;;;;;5054907;28;20505;-85
2021/05/15 07:33:55;;;;;;;16.05;6.38;;;39.60;32.50;;;;;;5037338;28;20060;-85
2021/05/15 07:36:21;;;;;;;23.35;6.75;;;40.10;32.20;;;;;;5055851;28;20043;-85
2021/05/15 07:38:48;;;;;;;18.20;5.47;;;40.30;31.80;;;;;;5055615;28;20029;-84
2021/05/15 07:41:15;;;;;;;10.90;4.75;;;40.40;31.50;;;;;;5056295;28;20025;-84
2021/05/15 07:43:41;;;;;;;11.48;4.60;;;39.70;31.70;;;;;;5058219;28;20025;-84
2021/05/15 07:46:07;;;;;;;8.75;4.47;;;39.70;32.10;;;;;;5056967;28;20507;-83
2021/05/15 07:48:40;;;;;;;10.43;4.85;;;39.10;32.30;;;;;;5056461;28;20036;-86
2021/05/15 07:51:08;;;;;;;6.40;4.18;;;39.50;32.50;;;;;;5057091;28;20024;-82
2021/05/15 07:53:34;;;;;;;9.00;4.93;;;40.30;32.00;;;;;;5054737;28;20028;-84
2021/05/15 07:56:00;;;;;;;7.70;4.43;;;40.00;31.70;;;;;;5055080;28;20102;-84
2021/05/15 07:58:26;;;;;;;6.28;4.22;;;40.10;31.80;;;;;;5056128;28;20025;-84
2021/05/15 08:00:51;;;;;;;8.90;4.03;;;39.80;31.80;;;;;;5054114;28;20056;-85
2021/05/15 08:03:17;;;;;;;11.20;4.35;;;38.50;32.40;;;;;;5054093;28;20232;-85
2021/05/15 08:05:43;;;;;;;7.40;4.15;;;37.20;34.10;;;;;;5054406;28;20040;-84
2021/05/15 08:08:09;;;;;;;6.70;4.10;;;38.00;34.20;;;;;;5053685;28;20075;-85
2021/05/15 08:10:35;;;;;;;9.40;4.15;;;39.30;33.10;;;;;;5054449;28;20024;-83
2021/05/15 08:13:02;;;;;;;8.23;3.90;;;39.10;32.50;;;;;;5035563;28;20029;-82
2021/05/15 08:15:29;;;;;;;7.82;4.05;;;39.10;32.40;;;;;;5044779;28;20033;-81
2021/05/15 08:17:55;;;;;;;8.10;4.15;;;39.10;32.00;;;;;;5058799;28;20043;-83
2021/05/15 08:20:22;;;;;;;7.00;3.72;;;38.50;32.70;;;;;;5055072;28;20486;-85
2021/05/15 08:22:49;;;;;;;10.18;3.85;;;39.20;32.60;;;;;;5045557;28;20037;-86
2021/05/15 08:25:16;;;;;;;9.05;3.90;;;39.10;31.50;;;;;;5064701;28;20022;-84
2021/05/15 08:27:43;;;;;;;8.18;3.60;;;39.20;31.60;;;;;;5060114;28;20065;-82
2021/05/15 08:30:18;;;;;;;6.55;3.58;;;39.80;30.50;;;;;;5071398;28;20060;-83
2021/05/15 08:32:44;;;;;;;13.50;4.82;;;37.60;31.20;;;;;;5053871;28;20063;-84
2021/05/15 08:35:11;;;;;;;5.00;3.75;;;34.40;35.00;;;;;;5045518;28;20032;-80
2021/05/15 08:37:37;;;;;;;;;;;32.60;37.50;;;;;;5047990;28;20061;-82
2021/05/15 08:40:07;;;;;;;8.65;4.28;;;31.50;38.00;;;;;;5051276;28;19936;-83
2021/05/15 08:42:40;;;;;;;6.43;4.47;;;31.30;39.20;;;;;;5046082;28;20035;-85
2021/05/15 08:45:08;;;;;;;7.57;3.72;;;32.40;38.60;;;;;;5035324;28;20018;-84
2021/05/15 08:47:37;;;;;;;6.03;3.53;;;33.50;36.90;;;;;;5048765;28;20111;-84
2021/05/15 08:50:09;;;;;;;4.05;2.95;;;34.60;34.60;;;;;;5052079;28;20025;-82
2021/05/15 08:52:44;;;;;;;7.28;3.95;;;34.40;33.90;;;;;;5035884;28;20036;-84
2021/05/15 08:55:13;;;;;;;8.32;4.20;;;34.10;35.40;;;;;;5053071;28;20043;-83
2021/05/15 08:57:39;;;;;;;8.10;3.22;;;35.20;34.20;;;;;;5034887;28;20512;-84
2021/05/15 09:00:16;;;;;;;5.32;3.45;;;34.70;33.10;;;;;;5052981;28;20402;-82
2021/05/15 09:02:44;;;;;;;7.75;3.78;;;35.70;32.60;;;;;;5051175;28;20076;-84
2021/05/15 09:05:12;;;;;;;5.68;3.75;;;36.90;31.30;;;;;;5052030;28;20024;-88
2021/05/15 09:07:38;;;;;;;6.93;2.95;;;36.90;31.00;;;;;;5052958;28;20036;-83
2021/05/15 09:10:06;;;;;;;5.95;3.10;;;37.90;29.80;;;;;;5053312;28;20021;-82
2021/05/15 09:12:32;;;;;;;5.50;2.90;;;39.00;28.90;;;;;;5052868;28;20034;-85
2021/05/15 09:15:05;;;;;;;5.13;2.63;;;39.60;28.00;;;;;;5053118;28;20047;-85
2021/05/15 09:17:45;;;;;;;5.63;2.63;;;39.60;28.00;;;;;;5042896;28;20474;-82
2021/05/15 09:20:26;;;;;;;6.47;3.13;;;39.10;28.20;;;;;;5054879;28;20021;-85
2021/05/15 09:22:51;;;;;;;5.72;3.15;;;39.20;28.70;;;;;;5053182;28;20037;-85
2021/05/15 09:25:18;;;;;;;8.05;4.55;;;38.10;28.70;;;;;;5055030;28;20027;-89
2021/05/15 09:27:49;;;;;;;7.22;3.15;;;37.80;29.10;;;;;;5043810;28;20052;-87
2021/05/15 09:30:16;;;;;;;7.32;3.35;;;37.50;28.30;;;;;;5054519;28;20021;-88
2021/05/15 09:32:42;;;;;;;5.32;2.72;;;35.30;30.40;;;;;;5050026;28;20025;-90
2021/05/15 09:35:19;;;;;;;8.82;3.88;;;35.00;31.10;;;;;;5056315;28;20378;-88
2021/05/15 09:37:49;;;;;;;5.18;3.38;;;35.30;31.10;;;;;;5036073;28;20128;-90
2021/05/15 09:40:25;;;;;;;6.95;3.97;;;36.40;30.10;;;;;;5057859;28;20024;-90
2021/05/15 09:42:58;;;;;;;6.32;3.42;;;36.00;30.60;;;;;;5038349;28;20039;-92
2021/05/15 09:45:32;;;;;;;4.70;3.65;;;36.40;29.60;;;;;;5037648;28;20435;-87
2021/05/15 09:48:03;;;;;;;8.68;3.22;;;36.00;29.10;;;;;;5019759;28;20223;-95
2021/05/15 09:50:37;;;;;;;8.23;2.58;;;36.20;29.60;;;;;;5024379;28;20045;-87
2021/05/15 09:53:15;;;;;;;4.20;2.78;;;36.60;29.40;;;;;;5035880;28;20099;-86
2021/05/15 09:55:44;;;;;;;7.72;2.65;;;36.30;29.00;;;;;;5032717;28;20026;-87
2021/05/15 09:58:17;;;;;;;6.05;2.97;;;34.50;30.30;;;;;;5036797;28;20526;-91
2021/05/15 10:00:51;;;;;;;6.78;2.97;;;33.60;31.30;;;;;;5032833;28;20179;-91
2021/05/15 10:03:22;;;;;;;5.55;3.05;;;34.20;31.40;;;;;;5039736;28;20120;-90
2021/05/15 10:05:59;;;;;;;10.90;4.03;;;35.40;30.00;;;;;;5040784;28;20030;-88
2021/05/15 10:08:28;;;;;;;7.40;3.47;;;35.90;29.80;;;;;;5038288;28;20089;-90
2021/05/15 10:10:54;;;;;;;7.95;3.15;;;34.90;29.30;;;;;;5034342;28;20044;-88
2021/05/15 10:13:21;;;;;;;6.15;2.50;;;34.60;30.00;;;;;;5047402;28;20037;-90
2021/05/15 10:15:47;;;;;;;10.63;3.88;;;34.80;30.00;;;;;;5064102;28;20091;-83
2021/05/15 10:18:17;;;;;;;4.38;3.00;;;35.40;28.80;;;;;;5053236;28;20021;-81
2021/05/15 10:20:44;;;;;;;6.45;2.47;;;35.30;28.50;;;;;;5056503;28;20040;-83
2021/05/15 10:23:26;;;;;;;6.22;2.75;;;35.60;28.60;;;;;;5055751;28;20083;-84
2021/05/15 10:26:10;;;;;;;8.07;3.40;;;34.60;29.50;;;;;;5047887;28;20047;-84
2021/05/15 10:28:39;;;;;;;7.82;3.22;;;33.80;30.30;;;;;;5057213;28;20033;-87
2021/05/15 10:31:14;;;;;;;11.90;3.25;;;33.20;30.40;;;;;;5060889;28;20509;-85
2021/05/15 10:33:50;;;;;;;8.20;3.30;;;32.50;31.30;;;;;;5059558;28;20109;-85
2021/05/15 10:36:24;;;;;;;7.45;4.53;;;31.80;32.40;;;;;;5043510;28;20028;-91
2021/05/15 10:38:52;;;;;;;7.97;3.75;;;31.30;33.60;;;;;;5046562;28;20052;-89
2021/05/15 10:41:27;;;;;;;8.23;4.22;;;30.80;32.80;;;;;;5059075;28;20069;-92
2021/05/15 10:43:57;;;;;;;13.30;3.72;;;30.40;33.60;;;;;;5074465;28;20048;-91
2021/05/15 10:46:28;;;;;;;6.82;2.40;;;30.30;33.30;;;;;;5044405;28;20025;-91
2021/05/15 10:49:32;;;;;;;6.90;2.70;;;29.90;32.10;;;;;;5054265;28;20018;-91
2021/05/15 10:52:10;;;;;;;6.93;3.03;;;29.80;32.80;;;;;;5023301;28;20119;-91
2021/05/15 10:55:01;;;;;;;3.97;1.98;;;29.30;31.30;;;;;;5058234;28;20024;-87
2021/05/15 10:57:30;;;;;;;5.47;2.83;;;28.90;32.60;;;;;;5043843;28;20017;-87
2021/05/15 11:00:07;;;;;;;5.35;2.35;;;28.50;34.50;;;;;;5062349;28;20351;-84
2021/05/15 11:02:39;;;;;;;8.65;3.03;;;28.20;34.70;;;;;;5043510;28;20061;-88
2021/05/15 11:05:44;;;;;;;5.45;2.58;;;28.10;34.90;;;;;;5062431;28;20017;-90
2021/05/15 11:08:29;;;;;;;4.05;2.90;;;28.10;34.90;;;;;;5054624;28;20108;-90
2021/05/15 11:11:12;;;;;;;6.63;3.00;;;27.90;33.80;;;;;;5051121;28;20025;-84
2021/05/15 11:13:50;;;;;;;3.50;2.72;;;27.90;32.60;;;;;;5066274;28;20057;-86
2021/05/15 11:16:29;;;;;;;6.07;3.05;;;27.70;32.20;;;;;;5042566;28;20017;-83
2021/05/15 11:19:06;;;;;;;7.65;3.38;;;27.50;33.80;;;;;;5034058;28;20071;-84
2021/05/15 11:21:40;;;;;;;6.57;2.28;;;27.50;34.50;;;;;;5056371;28;20046;-85
2021/05/15 11:24:08;;;;;;;7.32;1.95;;;27.60;33.30;;;;;;5055244;28;20140;-83
2021/05/15 11:26:47;;;;;;;6.10;2.38;;;27.30;33.00;;;;;;5042280;28;20044;-87
2021/05/15 11:29:35;;;;;;;5.78;2.75;;;27.20;32.80;;;;;;5054651;28;20024;-84
2021/05/15 11:32:14;;;;;;;3.90;2.05;;;27.10;33.00;;;;;;5056117;28;20028;-88
2021/05/15 11:34:41;;;;;;;9.05;2.53;;;27.00;33.60;;;;;;5055409;28;20373;-85
2021/05/15 11:37:09;;;;;;;7.43;2.30;;;27.20;33.70;;;;;;5056296;28;20082;-87
2021/05/15 11:39:37;;;;;;;5.18;2.30;;;27.40;34.10;;;;;;5056720;28;20073;-87
2021/05/15 11:42:30;;;;;;;5.88;3.25;;;27.50;33.90;;;;;;5055894;28;20037;-86
2021/05/15 11:44:56;;;;;;;8.05;2.70;;;27.20;34.50;;;;;;5055660;28;20104;-91
2021/05/15 11:47:24;;;;;;;7.63;2.50;;;27.10;35.00;;;;;;5039997;28;20024;-89
2021/05/15 11:49:58;;;;;;;3.15;2.08;;;27.20;34.50;;;;;;5035587;28;20021;-80
2021/05/15 11:52:37;;;;;;;9.38;2.92;;;26.90;34.00;;;;;;5029511;28;20021;-81
2021/05/15 11:55:06;;;;;;;4.93;3.17;;;26.80;34.90;;;;;;5053900;28;20087;-87
2021/05/15 11:57:32;;;;;;;5.50;2.63;;;26.80;35.20;;;;;;5054862;28;20036;-83
2021/05/15 12:00:09;;;;;;;2.55;1.73;;;26.80;35.30;;;;;;5036482;28;20078;-83
2021/05/15 12:02:40;;;;;;;5.95;2.05;;;26.70;32.90;;;;;;5055127;28;20037;-85
2021/05/15 12:05:16;;;;;;;6.38;2.47;;;26.50;34.00;;;;;;5055548;28;20024;-90
2021/05/15 12:07:52;;;;;;;2.87;2.03;;;26.60;34.40;;;;;;5039170;28;20123;-89
2021/05/15 12:10:20;;;;;;;7.55;2.67;;;26.70;34.80;;;;;;5052127;28;20099;-87
2021/05/15 12:13:01;;;;;;;8.00;2.80;;;26.70;34.90;;;;;;5043796;28;20433;-83
2021/05/15 12:15:29;;;;;;;3.75;2.60;;;26.80;35.10;;;;;;5051678;28;20025;-81
2021/05/15 12:18:00;;;;;;;5.35;2.95;;;27.00;35.00;;;;;;5062005;28;20063;-84
2021/05/15 12:20:39;;;;;;;6.90;2.47;;;27.20;35.50;;;;;;5046178;28;20498;-85
2021/05/15 12:23:20;;;;;;;7.05;2.63;;;27.40;35.10;;;;;;5055211;28;20056;-81
2021/05/15 12:26:00;;;;;;;13.75;2.85;;;27.40;35.10;;;;;;5057214;28;20512;-87
2021/05/15 12:28:28;;;;;;;6.00;2.78;;;27.20;35.90;;;;;;5051583;28;20029;-83
2021/05/15 12:30:54;;;;;;;4.70;2.40;;;26.80;36.20;;;;;;5037972;28;20074;-83
2021/05/15 12:33:22;;;;;;;14.90;3.47;;;26.50;36.70;;;;;;5055972;28;20029;-82
2021/05/15 12:36:07;;;;;;;16.17;2.92;;;26.30;35.60;;;;;;5045053;28;20122;-88
2021/05/15 12:38:47;;;;;;;13.35;2.70;;;26.00;35.10;;;;;;5037796;28;20021;-88
2021/05/15 12:41:31;;;;;;;14.80;3.45;;;25.70;35.60;;;;;;5056027;28;20017;-89
2021/05/15 12:44:18;;;;;;;9.52;2.03;;;25.20;36.30;;;;;;5049472;28;20041;-87
2021/05/15 12:46:46;;;;;;;7.40;2.33;;;24.70;36.90;;;;;;5058434;28;20032;-88